sensor_id;sensor_type;location;lat;lon;timestamp;pressure;altitude;pressure_sealevel;temperature;humidity
7018;BME280;3549;42.162;24.726;2022-11-20T00:03:31;47757.41;;;-141.97;100.00
7018;BME280;3549;42.162;24.726;2022-11-20T00:06:00;47713.22;;;-141.97;100.00
7018;BME280;3549;42.162;24.726;2022-11-20T00:08:26;47759.34;;;-141.97;100.00
7018;BME280;3549;42.162;24.726;2022-11-20T00:10:51;48013.06;;;-141.97;100.00
7018;BME280;3549;42.162;24.726;2022-11-20T00:13:17;47961.19;;;-141.97;100.00
7018;BME280;3549;42.162;24.726;2022-11-20T00:15:42;47845.84;;;-141.97;100.00
7018;BME280;3549;42.162;24.726;2022-11-20T00:18:07;47982.31;;;-141.97;100.00
7018;BME280;3549;42.162;24.726;2022-11-20T00:20:33;47761.25;;;-141.97;100.00
7018;BME280;3549;42.162;24.726;2022-11-20T00:22:58;47826.63;;;-141.97;100.00
7018;BME280;3549;42.162;24.726;2022-11-20T00:25:24;47980.41;;;-141.97;100.00
7018;BME280;3549;42.162;24.726;2022-11-20T00:27:50;47884.28;;;-141.97;100.00
7018;BME280;3549;42.162;24.726;2022-11-20T00:30:15;47851.59;;;-141.97;100.00
7018;BME280;3549;42.162;24.726;2022-11-20T00:32:44;47909.28;;;-141.97;100.00
7018;BME280;3549;42.162;24.726;2022-11-20T00:35:10;47963.09;;;-141.97;100.00
7018;BME280;3549;42.162;24.726;2022-11-20T00:37:35;47799.72;;;-141.97;100.00
7018;BME280;3549;42.162;24.726;2022-11-20T00:40:00;47830.47;;;-141.97;100.00
7018;BME280;3549;42.162;24.726;2022-11-20T00:42:26;47865.06;;;-141.97;100.00
7018;BME280;3549;42.162;24.726;2022-11-20T00:44:51;47803.56;;;-141.97;100.00
7018;BME280;3549;42.162;24.726;2022-11-20T00:47:17;47986.16;;;-141.97;100.00
7018;BME280;3549;42.162;24.726;2022-11-20T00:49:42;47895.81;;;-141.97;100.00
7018;BME280;3549;42.162;24.726;2022-11-20T00:52:07;47738.19;;;-141.97;100.00
7018;BME280;3549;42.162;24.726;2022-11-20T00:54:33;47742.03;;;-141.97;100.00
7018;BME280;3549;42.162;24.726;2022-11-20T00:56:58;47888.13;;;-141.97;100.00
7018;BME280;3549;42.162;24.726;2022-11-20T00:59:24;47765.09;;;-141.97;100.00
7018;BME280;3549;42.162;24.726;2022-11-20T01:01:49;47817.00;;;-141.97;100.00
7018;BME280;3549;42.162;24.726;2022-11-20T01:04:14;47928.50;;;-141.97;100.00
7018;BME280;3549;42.162;24.726;2022-11-20T01:06:40;47703.59;;;-141.97;100.00
7018;BME280;3549;42.162;24.726;2022-11-20T01:09:11;47868.91;;;-141.97;100.00
7018;BME280;3549;42.162;24.726;2022-11-20T01:11:40;47811.25;;;-141.97;100.00
7018;BME280;3549;42.162;24.726;2022-11-20T01:14:09;47988.09;;;-141.97;100.00
7018;BME280;3549;42.162;24.726;2022-11-20T01:16:38;47895.81;;;-141.97;100.00
7018;BME280;3549;42.162;24.726;2022-11-20T01:19:05;47884.28;;;-141.97;100.00
7018;BME280;3549;42.162;24.726;2022-11-20T01:21:34;47778.56;;;-141.97;100.00
7018;BME280;3549;42.162;24.726;2022-11-20T01:24:00;47876.59;;;-141.97;100.00
7018;BME280;3549;42.162;24.726;2022-11-20T01:26:28;47880.44;;;-141.97;100.00
7018;BME280;3549;42.162;24.726;2022-11-20T01:28:55;47876.59;;;-141.97;100.00
7018;BME280;3549;42.162;24.726;2022-11-20T01:31:23;47768.94;;;-141.97;100.00
7018;BME280;3549;42.162;24.726;2022-11-20T01:33:51;47928.50;;;-141.97;100.00
7018;BME280;3549;42.162;24.726;2022-11-20T01:36:18;47780.47;;;-141.97;100.00
7018;BME280;3549;42.162;24.726;2022-11-20T01:38:44;47803.56;;;-141.97;100.00
7018;BME280;3549;42.162;24.726;2022-11-20T01:41:11;47807.41;;;-141.97;100.00
7018;BME280;3549;42.162;24.726;2022-11-20T01:43:56;47838.16;;;-141.97;100.00
7018;BME280;3549;42.162;24.726;2022-11-20T01:46:22;47745.88;;;-141.97;100.00
7018;BME280;3549;42.162;24.726;2022-11-20T01:49:16;47926.56;;;-141.97;100.00
7018;BME280;3549;42.162;24.726;2022-11-20T01:51:50;47976.56;;;-141.97;100.00
7018;BME280;3549;42.162;24.726;2022-11-20T01:54:31;47990.00;;;-141.97;100.00
7018;BME280;3549;42.162;24.726;2022-11-20T01:56:59;47888.13;;;-141.97;100.00
7018;BME280;3549;42.162;24.726;2022-11-20T01:59:28;47697.84;;;-141.97;100.00
7018;BME280;3549;42.162;24.726;2022-11-20T02:01:54;47934.25;;;-141.97;100.00
7018;BME280;3549;42.162;24.726;2022-11-20T02:04:20;47872.75;;;-141.97;100.00
7018;BME280;3549;42.162;24.726;2022-11-20T02:07:14;47878.53;;;-141.97;100.00
7018;BME280;3549;42.162;24.726;2022-11-20T02:09:39;47868.91;;;-141.97;100.00
7018;BME280;3549;42.162;24.726;2022-11-20T02:12:05;47859.28;;;-141.97;100.00
7018;BME280;3549;42.162;24.726;2022-11-20T02:14:50;47991.94;;;-141.97;100.00
7018;BME280;3549;42.162;24.726;2022-11-20T02:17:16;47888.13;;;-141.97;100.00
7018;BME280;3549;42.162;24.726;2022-11-20T02:19:41;47970.78;;;-141.97;100.00
7018;BME280;3549;42.162;24.726;2022-11-20T02:22:21;47842.00;;;-141.97;100.00
7018;BME280;3549;42.162;24.726;2022-11-20T02:24:51;47847.75;;;-141.97;100.00
7018;BME280;3549;42.162;24.726;2022-11-20T02:27:17;47872.75;;;-141.97;100.00
7018;BME280;3549;42.162;24.726;2022-11-20T02:30:02;47895.81;;;-141.97;100.00
7018;BME280;3549;42.162;24.726;2022-11-20T02:32:32;47872.75;;;-141.97;100.00
7018;BME280;3549;42.162;24.726;2022-11-20T02:34:58;47876.59;;;-141.97;100.00
7018;BME280;3549;42.162;24.726;2022-11-20T02:37:33;47868.91;;;-141.97;100.00
7018;BME280;3549;42.162;24.726;2022-11-20T02:39:59;47990.00;;;-141.97;100.00
7018;BME280;3549;42.162;24.726;2022-11-20T02:42:25;47865.06;;;-141.97;100.00
7018;BME280;3549;42.162;24.726;2022-11-20T02:44:50;47857.38;;;-141.97;100.00
7018;BME280;3549;42.162;24.726;2022-11-20T02:47:15;47851.59;;;-141.97;100.00
7018;BME280;3549;42.162;24.726;2022-11-20T02:49:41;47995.78;;;-141.97;100.00
7018;BME280;3549;42.162;24.726;2022-11-20T02:52:06;47832.38;;;-141.97;100.00
7018;BME280;3549;42.162;24.726;2022-11-20T02:54:32;47842.00;;;-141.97;100.00
7018;BME280;3549;42.162;24.726;2022-11-20T02:56:57;47849.69;;;-141.97;100.00
7018;BME280;3549;42.162;24.726;2022-11-20T02:59:22;47868.91;;;-141.97;100.00
7018;BME280;3549;42.162;24.726;2022-11-20T03:01:48;47907.34;;;-141.97;100.00
7018;BME280;3549;42.162;24.726;2022-11-20T03:04:13;47888.13;;;-141.97;100.00
7018;BME280;3549;42.162;24.726;2022-11-20T03:06:39;47795.88;;;-141.97;100.00
7018;BME280;3549;42.162;24.726;2022-11-20T03:09:04;47715.13;;;-141.97;100.00
7018;BME280;3549;42.162;24.726;2022-11-20T03:11:29;47692.06;;;-141.97;100.00
7018;BME280;3549;42.162;24.726;2022-11-20T03:13:55;47820.84;;;-141.97;100.00
7018;BME280;3549;42.162;24.726;2022-11-20T03:16:22;47882.38;;;-141.97;100.00
7018;BME280;3549;42.162;24.726;2022-11-20T03:18:47;47730.50;;;-141.97;100.00
7018;BME280;3549;42.162;24.726;2022-11-20T03:21:14;47872.75;;;-141.97;100.00
7018;BME280;3549;42.162;24.726;2022-11-20T03:23:40;47792.03;;;-141.97;100.00
7018;BME280;3549;42.162;24.726;2022-11-20T03:26:23;47865.06;;;-141.97;100.00
7018;BME280;3549;42.162;24.726;2022-11-20T03:28:51;47899.66;;;-141.97;100.00
7018;BME280;3549;42.162;24.726;2022-11-20T03:31:19;47734.34;;;-141.97;100.00
7018;BME280;3549;42.162;24.726;2022-11-20T03:33:45;47941.94;;;-141.97;100.00
7018;BME280;3549;42.162;24.726;2022-11-20T03:36:12;47853.53;;;-141.97;100.00
7018;BME280;3549;42.162;24.726;2022-11-20T03:38:38;47792.03;;;-141.97;100.00
7018;BME280;3549;42.162;24.726;2022-11-20T03:41:07;47820.84;;;-141.97;100.00
7018;BME280;3549;42.162;24.726;2022-11-20T03:43:33;47849.69;;;-141.97;100.00
7018;BME280;3549;42.162;24.726;2022-11-20T03:45:59;47765.09;;;-141.97;100.00
7018;BME280;3549;42.162;24.726;2022-11-20T03:48:25;47991.94;;;-141.97;100.00
7018;BME280;3549;42.162;24.726;2022-11-20T03:50:52;47715.13;;;-141.97;100.00
7018;BME280;3549;42.162;24.726;2022-11-20T03:53:18;47965.03;;;-141.97;100.00
7018;BME280;3549;42.162;24.726;2022-11-20T03:55:44;47757.41;;;-141.97;100.00
7018;BME280;3549;42.162;24.726;2022-11-20T03:58:10;47897.75;;;-141.97;100.00
7018;BME280;3549;42.162;24.726;2022-11-20T04:00:35;47753.56;;;-141.97;100.00
7018;BME280;3549;42.162;24.726;2022-11-20T04:03:01;47830.47;;;-141.97;100.00
7018;BME280;3549;42.162;24.726;2022-11-20T04:05:27;47999.63;;;-141.97;100.00
7018;BME280;3549;42.162;24.726;2022-11-20T04:07:53;47922.72;;;-141.97;100.00
7018;BME280;3549;42.162;24.726;2022-11-20T04:10:18;47851.59;;;-141.97;100.00
7018;BME280;3549;42.162;24.726;2022-11-20T04:12:44;47865.06;;;-141.97;100.00
7018;BME280;3549;42.162;24.726;2022-11-20T04:15:09;47803.56;;;-141.97;100.00
7018;BME280;3549;42.162;24.726;2022-11-20T04:17:35;47855.44;;;-141.97;100.00
7018;BME280;3549;42.162;24.726;2022-11-20T04:20:01;47884.28;;;-141.97;100.00
7018;BME280;3549;42.162;24.726;2022-11-20T04:22:27;47780.47;;;-141.97;100.00
7018;BME280;3549;42.162;24.726;2022-11-20T04:24:52;47765.09;;;-141.97;100.00
7018;BME280;3549;42.162;24.726;2022-11-20T04:27:18;47876.59;;;-141.97;100.00
7018;BME280;3549;42.162;24.726;2022-11-20T04:29:43;47934.25;;;-141.97;100.00
7018;BME280;3549;42.162;24.726;2022-11-20T04:32:08;47788.19;;;-141.97;100.00
7018;BME280;3549;42.162;24.726;2022-11-20T04:34:34;47840.06;;;-141.97;100.00
7018;BME280;3549;42.162;24.726;2022-11-20T04:37:00;47817.00;;;-141.97;100.00
7018;BME280;3549;42.162;24.726;2022-11-20T04:39:25;47799.72;;;-141.97;100.00
7018;BME280;3549;42.162;24.726;2022-11-20T04:41:51;47868.91;;;-141.97;100.00
7018;BME280;3549;42.162;24.726;2022-11-20T04:44:36;47878.53;;;-141.97;100.00
7018;BME280;3549;42.162;24.726;2022-11-20T04:47:02;47982.31;;;-141.97;100.00
7018;BME280;3549;42.162;24.726;2022-11-20T04:49:27;47878.53;;;-141.97;100.00
7018;BME280;3549;42.162;24.726;2022-11-20T04:51:53;47888.13;;;-141.97;100.00
7018;BME280;3549;42.162;24.726;2022-11-20T04:54:18;47976.56;;;-141.97;100.00
7018;BME280;3549;42.162;24.726;2022-11-20T04:56:47;47842.00;;;-141.97;100.00
7018;BME280;3549;42.162;24.726;2022-11-20T04:59:13;47895.81;;;-141.97;100.00
7018;BME280;3549;42.162;24.726;2022-11-20T05:01:38;47757.41;;;-141.97;100.00
7018;BME280;3549;42.162;24.726;2022-11-20T05:04:04;47784.34;;;-141.97;100.00
7018;BME280;3549;42.162;24.726;2022-11-20T05:06:29;47976.56;;;-141.97;100.00
7018;BME280;3549;42.162;24.726;2022-11-20T05:08:54;47707.44;;;-141.97;100.00
7018;BME280;3549;42.162;24.726;2022-11-20T05:11:21;47711.28;;;-141.97;100.00
7018;BME280;3549;42.162;24.726;2022-11-20T05:13:47;47865.06;;;-141.97;100.00
7018;BME280;3549;42.162;24.726;2022-11-20T05:16:17;48015.00;;;-141.97;100.00
7018;BME280;3549;42.162;24.726;2022-11-20T05:18:43;47768.94;;;-141.97;100.00
7018;BME280;3549;42.162;24.726;2022-11-20T05:21:10;47874.69;;;-141.97;100.00
7018;BME280;3549;42.162;24.726;2022-11-20T05:23:36;47845.84;;;-141.97;100.00
7018;BME280;3549;42.162;24.726;2022-11-20T05:26:03;47876.59;;;-141.97;100.00
7018;BME280;3549;42.162;24.726;2022-11-20T05:28:30;47915.03;;;-141.97;100.00
7018;BME280;3549;42.162;24.726;2022-11-20T05:31:03;47845.84;;;-141.97;100.00
7018;BME280;3549;42.162;24.726;2022-11-20T05:33:28;47984.25;;;-141.97;100.00
7018;BME280;3549;42.162;24.726;2022-11-20T05:35:58;47755.50;;;-141.97;100.00
7018;BME280;3549;42.162;24.726;2022-11-20T05:38:23;47834.31;;;-141.97;100.00
7018;BME280;3549;42.162;24.726;2022-11-20T05:40:49;47895.81;;;-141.97;100.00
7018;BME280;3549;42.162;24.726;2022-11-20T05:43:14;47907.34;;;-141.97;100.00
7018;BME280;3549;42.162;24.726;2022-11-20T05:45:39;47857.38;;;-141.97;100.00
7018;BME280;3549;42.162;24.726;2022-11-20T05:48:05;47899.66;;;-141.97;100.00
7018;BME280;3549;42.162;24.726;2022-11-20T05:50:30;47778.56;;;-141.97;100.00
7018;BME280;3549;42.162;24.726;2022-11-20T05:52:58;47888.13;;;-141.97;100.00
7018;BME280;3549;42.162;24.726;2022-11-20T05:55:24;47868.91;;;-141.97;100.00
7018;BME280;3549;42.162;24.726;2022-11-20T05:57:50;47768.94;;;-141.97;100.00
7018;BME280;3549;42.162;24.726;2022-11-20T06:00:17;47847.75;;;-141.97;100.00
7018;BME280;3549;42.162;24.726;2022-11-20T06:02:42;47772.78;;;-141.97;100.00
7018;BME280;3549;42.162;24.726;2022-11-20T06:05:08;47870.81;;;-141.97;100.00
7018;BME280;3549;42.162;24.726;2022-11-20T06:07:33;47876.59;;;-141.97;100.00
7018;BME280;3549;42.162;24.726;2022-11-20T06:09:59;47803.56;;;-141.97;100.00
7018;BME280;3549;42.162;24.726;2022-11-20T06:12:24;47792.03;;;-141.97;100.00
7018;BME280;3549;42.162;24.726;2022-11-20T06:14:49;47726.66;;;-141.97;100.00
7018;BME280;3549;42.162;24.726;2022-11-20T06:17:15;48041.91;;;-141.97;100.00
7018;BME280;3549;42.162;24.726;2022-11-20T06:19:40;47793.94;;;-141.97;100.00
7018;BME280;3549;42.162;24.726;2022-11-20T06:22:06;47728.59;;;-141.97;100.00
7018;BME280;3549;42.162;24.726;2022-11-20T06:24:31;47745.88;;;-141.97;100.00
7018;BME280;3549;42.162;24.726;2022-11-20T06:26:56;47753.56;;;-141.97;100.00
7018;BME280;3549;42.162;24.726;2022-11-20T06:29:22;47776.63;;;-141.97;100.00
7018;BME280;3549;42.162;24.726;2022-11-20T06:31:47;47968.88;;;-141.97;100.00
7018;BME280;3549;42.162;24.726;2022-11-20T06:34:12;47711.28;;;-141.97;100.00
7018;BME280;3549;42.162;24.726;2022-11-20T06:36:38;47832.38;;;-141.97;100.00
7018;BME280;3549;42.162;24.726;2022-11-20T06:39:06;47866.97;;;-141.97;100.00
7018;BME280;3549;42.162;24.726;2022-11-20T06:41:32;47761.25;;;-141.97;100.00
7018;BME280;3549;42.162;24.726;2022-11-20T06:43:57;47743.97;;;-141.97;100.00
7018;BME280;3549;42.162;24.726;2022-11-20T06:46:22;47803.56;;;-141.97;100.00
7018;BME280;3549;42.162;24.726;2022-11-20T06:48:48;47868.91;;;-141.97;100.00
7018;BME280;3549;42.162;24.726;2022-11-20T06:51:15;47863.13;;;-141.97;100.00
7018;BME280;3549;42.162;24.726;2022-11-20T06:53:41;47872.75;;;-141.97;100.00
7018;BME280;3549;42.162;24.726;2022-11-20T06:56:09;47876.59;;;-141.97;100.00
7018;BME280;3549;42.162;24.726;2022-11-20T06:58:36;47830.47;;;-141.97;100.00
7018;BME280;3549;42.162;24.726;2022-11-20T07:01:12;47861.22;;;-141.97;100.00
7018;BME280;3549;42.162;24.726;2022-11-20T07:03:39;47888.13;;;-141.97;100.00
7018;BME280;3549;42.162;24.726;2022-11-20T07:06:06;47726.66;;;-141.97;100.00
7018;BME280;3549;42.162;24.726;2022-11-20T07:08:32;47849.69;;;-141.97;100.00
7018;BME280;3549;42.162;24.726;2022-11-20T07:10:59;47845.84;;;-141.97;100.00
7018;BME280;3549;42.162;24.726;2022-11-20T07:13:26;47849.69;;;-141.97;99.94
7018;BME280;3549;42.162;24.726;2022-11-20T07:15:52;47722.81;;;-141.97;99.12
7018;BME280;3549;42.162;24.726;2022-11-20T07:18:17;47922.72;;;-141.97;98.00
7018;BME280;3549;42.162;24.726;2022-11-20T07:20:43;47857.38;;;-141.97;97.38
7018;BME280;3549;42.162;24.726;2022-11-20T07:23:08;47778.56;;;-141.97;96.67
7018;BME280;3549;42.162;24.726;2022-11-20T07:25:34;47818.94;;;-141.97;96.38
7018;BME280;3549;42.162;24.726;2022-11-20T07:28:00;47722.81;;;-141.97;95.68
7018;BME280;3549;42.162;24.726;2022-11-20T07:30:27;47868.91;;;-141.97;94.61
7018;BME280;3549;42.162;24.726;2022-11-20T07:32:54;47857.38;;;-141.97;94.02
7018;BME280;3549;42.162;24.726;2022-11-20T07:35:20;47874.69;;;-141.97;93.49
7018;BME280;3549;42.162;24.726;2022-11-20T07:37:46;47755.50;;;-141.97;93.02
7018;BME280;3549;42.162;24.726;2022-11-20T07:40:15;47780.47;;;-141.97;92.99
7018;BME280;3549;42.162;24.726;2022-11-20T07:42:54;47953.50;;;-141.97;93.07
7018;BME280;3549;42.162;24.726;2022-11-20T07:45:21;47999.63;;;-141.97;92.72
7018;BME280;3549;42.162;24.726;2022-11-20T07:47:48;47874.69;;;-141.97;92.44
7018;BME280;3549;42.162;24.726;2022-11-20T07:50:14;47842.00;;;-141.97;91.92
7018;BME280;3549;42.162;24.726;2022-11-20T07:52:40;47784.34;;;-141.97;91.95
7018;BME280;3549;42.162;24.726;2022-11-20T07:55:06;47845.84;;;-141.97;92.09
7018;BME280;3549;42.162;24.726;2022-11-20T07:57:32;47851.59;;;-141.97;91.46
7018;BME280;3549;42.162;24.726;2022-11-20T07:59:57;47865.06;;;-141.97;91.30
7018;BME280;3549;42.162;24.726;2022-11-20T08:02:23;47818.94;;;-141.97;91.09
7018;BME280;3549;42.162;24.726;2022-11-20T08:04:48;48011.16;;;-141.97;91.62
7018;BME280;3549;42.162;24.726;2022-11-20T08:07:14;47926.56;;;-141.97;91.72
7018;BME280;3549;42.162;24.726;2022-11-20T08:09:39;47763.19;;;-141.97;91.36
7018;BME280;3549;42.162;24.726;2022-11-20T08:12:05;47707.44;;;-141.97;91.23
7018;BME280;3549;42.162;24.726;2022-11-20T08:14:49;47805.47;;;-141.97;91.16
7018;BME280;3549;42.162;24.726;2022-11-20T08:17:14;47797.78;;;-141.97;91.03
7018;BME280;3549;42.162;24.726;2022-11-20T08:19:40;47830.47;;;-141.97;90.58
7018;BME280;3549;42.162;24.726;2022-11-20T08:22:05;47872.75;;;-141.97;90.22
7018;BME280;3549;42.162;24.726;2022-11-20T08:24:30;47880.44;;;-141.97;89.84
7018;BME280;3549;42.162;24.726;2022-11-20T08:26:59;47855.44;;;-141.97;89.58
7018;BME280;3549;42.162;24.726;2022-11-20T08:29:26;47895.81;;;-141.97;88.97
7018;BME280;3549;42.162;24.726;2022-11-20T08:31:52;47728.59;;;-141.97;88.22
7018;BME280;3549;42.162;24.726;2022-11-20T08:34:17;47930.41;;;-141.97;87.62
7018;BME280;3549;42.162;24.726;2022-11-20T08:36:43;47803.56;;;-141.97;86.20
7018;BME280;3549;42.162;24.726;2022-11-20T08:39:11;48018.84;;;-141.97;86.24
7018;BME280;3549;42.162;24.726;2022-11-20T08:41:37;47955.41;;;-141.97;85.85
7018;BME280;3549;42.162;24.726;2022-11-20T08:44:04;47780.47;;;-141.97;84.61
7018;BME280;3549;42.162;24.726;2022-11-20T08:46:40;47895.81;;;-141.97;81.51
7018;BME280;3549;42.162;24.726;2022-11-20T08:49:09;47830.47;;;-141.97;80.57
7018;BME280;3549;42.162;24.726;2022-11-20T08:51:35;47751.66;;;-141.97;80.45
7018;BME280;3549;42.162;24.726;2022-11-20T08:54:01;47838.16;;;-141.97;81.75
7018;BME280;3549;42.162;24.726;2022-11-20T08:56:27;47815.09;;;-141.97;79.91
7018;BME280;3549;42.162;24.726;2022-11-20T08:58:56;47849.69;;;-141.97;77.25
7018;BME280;3549;42.162;24.726;2022-11-20T09:01:23;47724.75;;;-141.97;76.37
7018;BME280;3549;42.162;24.726;2022-11-20T09:03:49;47730.50;;;-141.97;75.35
7018;BME280;3549;42.162;24.726;2022-11-20T09:06:15;47780.47;;;-141.97;71.86
7018;BME280;3549;42.162;24.726;2022-11-20T09:08:46;47615.19;;;-141.97;69.79
7018;BME280;3549;42.162;24.726;2022-11-20T09:11:14;47899.66;;;-141.97;68.36
7018;BME280;3549;42.162;24.726;2022-11-20T09:13:40;47872.75;;;-141.97;67.32
7018;BME280;3549;42.162;24.726;2022-11-20T09:16:08;47786.25;;;-141.97;67.08
7018;BME280;3549;42.162;24.726;2022-11-20T09:18:34;47753.56;;;-141.97;67.13
7018;BME280;3549;42.162;24.726;2022-11-20T09:21:06;47757.41;;;-141.97;65.74
7018;BME280;3549;42.162;24.726;2022-11-20T09:23:33;47522.91;;;-141.97;66.48
7018;BME280;3549;42.162;24.726;2022-11-20T09:26:08;47795.88;;;-141.97;66.52
7018;BME280;3549;42.162;24.726;2022-11-20T09:28:34;47784.34;;;-141.97;65.53
7018;BME280;3549;42.162;24.726;2022-11-20T09:30:59;47803.56;;;-141.97;64.80
7018;BME280;3549;42.162;24.726;2022-11-20T09:33:25;47576.75;;;-141.97;65.58
7018;BME280;3549;42.162;24.726;2022-11-20T09:35:51;47799.72;;;-141.97;65.66
7018;BME280;3549;42.162;24.726;2022-11-20T09:38:16;47876.59;;;-141.97;65.76
7018;BME280;3549;42.162;24.726;2022-11-20T09:46:17;47743.97;;;-141.97;62.34
7018;BME280;3549;42.162;24.726;2022-11-20T09:49:33;47688.22;;;-141.97;60.90
7018;BME280;3549;42.162;24.726;2022-11-20T09:54:40;47757.41;;;-141.97;60.24
7018;BME280;3549;42.162;24.726;2022-11-20T09:57:12;47784.34;;;-141.97;60.09
7018;BME280;3549;42.162;24.726;2022-11-20T10:05:22;47699.75;;;-141.97;58.58
7018;BME280;3549;42.162;24.726;2022-11-20T10:07:58;47713.22;;;-141.97;59.02
7018;BME280;3549;42.162;24.726;2022-11-20T10:10:33;47738.19;;;-141.97;59.14
7018;BME280;3549;42.162;24.726;2022-11-20T10:13:09;47726.66;;;-141.97;59.66
7018;BME280;3549;42.162;24.726;2022-11-20T10:26:29;47734.34;;;-141.97;59.78
7018;BME280;3549;42.162;24.726;2022-11-20T10:29:15;47718.97;;;-141.97;59.76
7018;BME280;3549;42.162;24.726;2022-11-20T10:31:48;47736.28;;;-141.97;59.94
7018;BME280;3549;42.162;24.726;2022-11-20T10:34:26;47695.91;;;-141.97;60.35
7018;BME280;3549;42.162;24.726;2022-11-20T10:36:57;47645.94;;;-141.97;61.30
7018;BME280;3549;42.162;24.726;2022-11-20T10:39:32;47734.34;;;-141.97;61.87
7018;BME280;3549;42.162;24.726;2022-11-20T10:42:00;47715.13;;;-141.97;62.43
7018;BME280;3549;42.162;24.726;2022-11-20T10:44:28;47742.03;;;-141.97;62.61
7018;BME280;3549;42.162;24.726;2022-11-20T10:47:16;47776.63;;;-141.97;63.14
7018;BME280;3549;42.162;24.726;2022-11-20T10:49:44;47768.94;;;-141.97;63.56
7018;BME280;3549;42.162;24.726;2022-11-20T10:54:58;47749.72;;;-141.97;63.40
7018;BME280;3549;42.162;24.726;2022-11-20T10:57:51;47740.13;;;-141.97;63.81
7018;BME280;3549;42.162;24.726;2022-11-20T11:00:19;47757.41;;;-141.97;63.96
7018;BME280;3549;42.162;24.726;2022-11-20T11:02:52;47736.28;;;-141.97;63.58
7018;BME280;3549;42.162;24.726;2022-11-20T11:08:17;47778.56;;;-141.97;64.43
7018;BME280;3549;42.162;24.726;2022-11-20T11:10:53;47767.03;;;-141.97;64.95
7018;BME280;3549;42.162;24.726;2022-11-20T11:13:25;47755.50;;;-141.97;64.87
7018;BME280;3549;42.162;24.726;2022-11-20T11:15:51;47922.72;;;-141.97;65.70
7018;BME280;3549;42.162;24.726;2022-11-20T11:18:31;47717.06;;;-141.97;65.97
7018;BME280;3549;42.162;24.726;2022-11-20T11:20:59;47776.63;;;-141.97;65.62
7018;BME280;3549;42.162;24.726;2022-11-20T11:23:37;47778.56;;;-141.97;66.02
7018;BME280;3549;42.162;24.726;2022-11-20T11:26:05;47759.34;;;-141.97;67.38
7018;BME280;3549;42.162;24.726;2022-11-20T11:28:32;47763.19;;;-141.97;67.90
7018;BME280;3549;42.162;24.726;2022-11-20T11:30:58;47638.25;;;-141.97;67.95
7018;BME280;3549;42.162;24.726;2022-11-20T11:33:28;47784.34;;;-141.97;69.09
7018;BME280;3549;42.162;24.726;2022-11-20T11:38:32;47788.19;;;-141.97;68.82
7018;BME280;3549;42.162;24.726;2022-11-20T11:41:00;47930.41;;;-141.97;68.56
7018;BME280;3549;42.162;24.726;2022-11-20T11:43:29;47722.81;;;-141.97;68.27
7018;BME280;3549;42.162;24.726;2022-11-20T11:51:45;47761.25;;;-141.97;68.31
7018;BME280;3549;42.162;24.726;2022-11-20T11:57:00;47670.91;;;-141.97;67.52
7018;BME280;3549;42.162;24.726;2022-11-20T11:59:39;47915.03;;;-141.97;66.36
7018;BME280;3549;42.162;24.726;2022-11-20T12:08:23;47747.81;;;-141.97;65.56
7018;BME280;3549;42.162;24.726;2022-11-20T12:15:55;47955.41;;;-141.97;65.12
7018;BME280;3549;42.162;24.726;2022-11-20T12:18:24;47728.59;;;-141.97;65.29
7018;BME280;3549;42.162;24.726;2022-11-20T12:21:11;47767.03;;;-141.97;64.40
7018;BME280;3549;42.162;24.726;2022-11-20T12:43:21;47768.94;;;-141.97;63.54
7018;BME280;3549;42.162;24.726;2022-11-20T12:46:29;47761.25;;;-141.97;63.45
7018;BME280;3549;42.162;24.726;2022-11-20T13:00:20;47780.47;;;-141.97;59.37
7018;BME280;3549;42.162;24.726;2022-11-20T13:06:17;47730.50;;;-141.97;57.48
7018;BME280;3549;42.162;24.726;2022-11-20T13:08:49;47676.69;;;-141.97;54.61
7018;BME280;3549;42.162;24.726;2022-11-20T13:11:40;47738.19;;;-141.97;52.66
7018;BME280;3549;42.162;24.726;2022-11-20T13:17:01;47742.03;;;-141.97;52.12
7018;BME280;3549;42.162;24.726;2022-11-20T13:19:30;47674.78;;;-141.97;51.90
7018;BME280;3549;42.162;24.726;2022-11-20T13:21:59;47663.22;;;-141.97;51.62
7018;BME280;3549;42.162;24.726;2022-11-20T13:24:28;47567.13;;;-141.97;51.77
7018;BME280;3549;42.162;24.726;2022-11-20T13:27:17;47680.53;;;-141.97;51.04
7018;BME280;3549;42.162;24.726;2022-11-20T13:29:47;47728.59;;;-141.97;50.95
7018;BME280;3549;42.162;24.726;2022-11-20T13:32:24;47722.81;;;-141.97;51.25
7018;BME280;3549;42.162;24.726;2022-11-20T13:34:52;47730.50;;;-141.97;51.02
7018;BME280;3549;42.162;24.726;2022-11-20T13:37:38;47905.44;;;-141.97;50.73
7018;BME280;3549;42.162;24.726;2022-11-20T13:40:20;47551.75;;;-141.97;50.53
7018;BME280;3549;42.162;24.726;2022-11-20T13:45:33;47838.16;;;-141.97;50.55
7018;BME280;3549;42.162;24.726;2022-11-20T13:48:04;47743.97;;;-141.97;50.39
7018;BME280;3549;42.162;24.726;2022-11-20T13:53:13;47728.59;;;-141.97;50.37
7018;BME280;3549;42.162;24.726;2022-11-20T13:55:53;47715.13;;;-141.97;50.87
7018;BME280;3549;42.162;24.726;2022-11-20T13:58:36;47738.19;;;-141.97;52.54
7018;BME280;3549;42.162;24.726;2022-11-20T14:01:10;47620.94;;;-141.97;58.74
7018;BME280;3549;42.162;24.726;2022-11-20T14:03:39;47776.63;;;-141.97;63.63
7018;BME280;3549;42.162;24.726;2022-11-20T14:06:12;47607.50;;;-141.97;67.96
7018;BME280;3549;42.162;24.726;2022-11-20T14:08:43;47688.22;;;-141.97;70.64
7018;BME280;3549;42.162;24.726;2022-11-20T14:13:39;47665.16;;;-141.97;68.14
7018;BME280;3549;42.162;24.726;2022-11-20T14:16:05;47941.94;;;-141.97;65.99
7018;BME280;3549;42.162;24.726;2022-11-20T14:18:30;47580.59;;;-141.97;65.29
7018;BME280;3549;42.162;24.726;2022-11-20T14:20:55;47665.16;;;-141.97;65.13
7018;BME280;3549;42.162;24.726;2022-11-20T14:23:28;47757.41;;;-141.97;64.66
7018;BME280;3549;42.162;24.726;2022-11-20T14:25:54;47865.06;;;-141.97;65.43
7018;BME280;3549;42.162;24.726;2022-11-20T14:28:25;47768.94;;;-141.97;65.33
7018;BME280;3549;42.162;24.726;2022-11-20T14:30:52;47859.28;;;-141.97;65.21
7018;BME280;3549;42.162;24.726;2022-11-20T14:33:30;47718.97;;;-141.97;64.78